Liberty, Minnesota
Current Conditions -  °F | °C
As of 5:53 AM on Saturday 25 Oct 2014 (Local Time) from KBJI Reporting Station
Clear Clear  
Wind Chill: 36°   Ceiling: Unl
Heat Index: 41°   Visibility: 10mi
Dew Point: 31°   Wind: 8mph
Humidity: 66%   Direction: 260°W
Pressure: 29.96"   Gusts: NA
Location:  47.7369°N, 94.9947°W
Report Text: KBJI 251053Z AUTO 26007KT 10SM CLR 05/M01 A2996 RMK AO2 T00521007
Loading
Personal Weather Stations






























Interactive Weather Map
Tropical Storm Tracking
New forecast layout! Learn more

10-Day Weather Forecast

Advertisements
Track Severe Weather on mobile